createdAt,value
2022-07-26T00:01:15.828Z,100621.50
2022-07-26T00:04:18.592Z,100613.94
2022-07-26T00:07:22.587Z,100611.72
2022-07-26T00:10:25.165Z,100611.53
2022-07-26T00:13:27.854Z,100619.72
2022-07-26T00:16:33.353Z,100607.47
2022-07-26T00:19:35.961Z,100606.13
2022-07-26T00:22:41.581Z,100609.03
2022-07-26T00:25:44.173Z,100614.69
2022-07-26T00:28:46.820Z,100621.06
2022-07-26T00:31:49.514Z,100617.13
2022-07-26T00:34:52.561Z,100619.44
2022-07-26T00:37:56.509Z,100614.69
2022-07-26T00:40:59.124Z,100620.31
2022-07-26T00:44:01.747Z,100613.84
2022-07-26T00:47:04.590Z,100614.84
2022-07-26T00:50:10.487Z,100619.22
2022-07-26T00:53:14.568Z,100621.78
2022-07-26T00:56:18.330Z,100621.44
2022-07-26T00:59:21.398Z,100622.41
2022-07-26T01:02:24.052Z,100622.63
2022-07-26T01:05:27.449Z,100626.44
2022-07-26T01:08:31.843Z,100627.66
2022-07-26T01:11:34.445Z,100632.81
2022-07-26T01:14:37.042Z,100628.41
2022-07-26T01:17:40.087Z,100617.88
2022-07-26T01:20:44.591Z,100613.22
2022-07-26T01:23:48.794Z,100612.28
2022-07-26T01:26:51.414Z,100609.69
2022-07-26T01:29:54.029Z,100611.03
2022-07-26T01:32:56.681Z,100614.97
2022-07-26T01:36:00.086Z,100604.16
2022-07-26T01:39:04.440Z,100610.66
2022-07-26T01:42:07.311Z,100608.09
2022-07-26T01:45:10.878Z,100611.66
2022-07-26T01:48:13.515Z,100616.16
2022-07-26T01:51:16.102Z,100609.94
2022-07-26T01:54:22.262Z,100605.63
2022-07-26T01:57:27.154Z,100609.09
2022-07-26T02:00:29.941Z,100610.06
2022-07-26T02:03:32.518Z,100607.72
2022-07-26T02:06:35.152Z,100606.38
2022-07-26T02:09:39.785Z,100607.56
2022-07-26T02:12:43.078Z,100616.25
2022-07-26T02:15:45.731Z,100610.84
2022-07-26T02:18:48.399Z,100601.88
2022-07-26T02:21:50.976Z,100609.66
2022-07-26T02:24:55.226Z,100615.44
2022-07-26T02:27:57.843Z,100618.81
2022-07-26T02:31:00.461Z,100624.78
2022-07-26T02:34:03.739Z,100617.44
2022-07-26T02:37:06.397Z,100621.63
2022-07-26T02:40:17.027Z,100621.78
2022-07-26T02:43:21.539Z,100617.72
2022-07-26T02:46:24.170Z,100626.88
2022-07-26T02:49:26.832Z,100627.84
2022-07-26T02:52:29.468Z,100622.22
2022-07-26T02:55:33.466Z,100628.50
2022-07-26T02:58:37.387Z,100630.22
2022-07-26T03:01:40.087Z,100627.34
2022-07-26T03:04:42.831Z,100636.72
2022-07-26T03:07:46.453Z,100634.66
2022-07-26T03:10:50.374Z,100634.72
2022-07-26T03:13:52.955Z,100640.25
2022-07-26T03:16:55.533Z,100636.25
2022-07-26T03:19:58.176Z,100639.66
2022-07-26T03:23:00.751Z,100638.06
2022-07-26T03:26:04.728Z,100638.44
2022-07-26T03:29:07.481Z,100643.69
2022-07-26T03:32:11.231Z,100649.06
2022-07-26T03:35:13.831Z,100646.38
2022-07-26T03:38:16.446Z,100645.91
2022-07-26T03:41:20.397Z,100649.25
2022-07-26T03:44:22.999Z,100643.81
2022-07-26T03:47:25.575Z,100642.06
2022-07-26T03:50:28.200Z,100648.81
2022-07-26T03:53:30.774Z,100647.25
2022-07-26T03:56:34.763Z,100651.44
2022-07-26T03:59:37.593Z,100643.97
2022-07-26T04:02:40.178Z,100645.09
2022-07-26T04:05:48.955Z,100653.84
2022-07-26T04:08:51.958Z,100654.38
2022-07-26T04:11:56.011Z,100656.53
2022-07-26T04:14:58.532Z,100649.13
2022-07-26T04:18:01.114Z,100645.72
2022-07-26T04:21:03.951Z,100661.13
2022-07-26T04:24:07.506Z,100656.50
2022-07-26T04:27:11.613Z,100653.81
2022-07-26T04:30:15.636Z,100660.34
2022-07-26T04:33:18.429Z,100665.09
2022-07-26T04:36:21.047Z,100667.25
2022-07-26T04:39:24.583Z,100673.44
2022-07-26T04:42:28.631Z,100667.25
2022-07-26T04:45:31.343Z,100662.97
2022-07-26T04:48:33.980Z,100674.69
2022-07-26T04:51:36.610Z,100673.19
2022-07-26T04:54:39.203Z,100666.94
2022-07-26T04:57:43.687Z,100672.69
2022-07-26T05:01:09.124Z,100671.78
2022-07-26T05:04:09.450Z,100670.13
2022-07-26T05:07:12.271Z,100671.25
2022-07-26T05:10:15.660Z,100676.72
2022-07-26T05:13:28.725Z,100667.22
2022-07-26T05:16:33.422Z,100677.50
2022-07-26T05:19:36.079Z,100674.56
2022-07-26T05:22:38.873Z,100679.47
2022-07-26T05:25:41.511Z,100681.34
2022-07-26T05:28:45.516Z,100682.59
2022-07-26T05:31:48.107Z,100672.81
2022-07-26T05:34:50.994Z,100683.69
2022-07-26T05:37:53.594Z,100685.03
2022-07-26T05:40:56.211Z,100685.22
2022-07-26T05:44:00.177Z,100682.59
2022-07-26T05:47:02.846Z,100679.56
2022-07-26T05:50:07.080Z,100669.38
2022-07-26T05:53:09.645Z,100680.81
2022-07-26T05:56:12.243Z,100686.50
2022-07-26T05:59:16.206Z,100686.28
2022-07-26T06:02:19.103Z,100681.44
2022-07-26T06:05:21.841Z,100697.09
2022-07-26T06:08:25.693Z,100710.84
2022-07-26T06:11:28.587Z,100724.50
2022-07-26T06:14:32.508Z,100724.66
2022-07-26T06:17:35.142Z,100723.47
2022-07-26T06:20:40.073Z,100726.59
2022-07-26T06:23:42.683Z,100732.19
2022-07-26T06:26:46.554Z,100731.03
2022-07-26T06:29:52.528Z,100733.41
2022-07-26T06:32:55.155Z,100735.84
2022-07-26T06:35:57.766Z,100737.69
2022-07-26T06:39:00.378Z,100737.34
2022-07-26T06:42:02.969Z,100741.88
2022-07-26T06:45:08.012Z,100738.75
2022-07-26T06:48:10.603Z,100742.25
2022-07-26T06:51:13.340Z,100740.78
2022-07-26T06:54:15.942Z,100752.34
2022-07-26T06:57:18.537Z,100754.44
2022-07-26T07:00:22.523Z,100753.59
2022-07-26T07:03:25.091Z,100759.97
2022-07-26T07:06:27.681Z,100755.41
2022-07-26T07:09:30.404Z,100767.28
2022-07-26T07:12:33.087Z,100754.47
2022-07-26T07:15:37.010Z,100753.50
2022-07-26T07:18:39.595Z,100763.03
2022-07-26T07:21:42.217Z,100764.03
2022-07-26T07:24:44.852Z,100772.84
2022-07-26T07:27:49.450Z,100772.59
2022-07-26T07:30:53.418Z,100792.84
2022-07-26T07:33:56.035Z,100802.31
2022-07-26T07:36:58.674Z,100820.50
2022-07-26T07:40:05.071Z,100814.56
2022-07-26T07:43:07.658Z,100816.69
2022-07-26T07:46:12.547Z,100818.53
2022-07-26T07:49:15.743Z,100821.81
2022-07-26T07:52:18.483Z,100828.91
2022-07-26T07:55:40.398Z,100825.13
2022-07-26T07:58:43.800Z,100831.63
2022-07-26T08:01:47.739Z,100829.75
2022-07-26T08:04:50.391Z,100837.34
2022-07-26T08:07:52.945Z,100841.53
2022-07-26T08:10:55.722Z,100852.47
2022-07-26T08:13:59.421Z,100868.09
2022-07-26T08:17:03.545Z,100875.22
2022-07-26T08:20:08.021Z,100872.00
2022-07-26T08:23:13.434Z,100868.97
2022-07-26T08:26:16.079Z,100873.38
2022-07-26T08:29:18.847Z,100873.16
2022-07-26T08:32:22.866Z,100876.34
2022-07-26T08:35:25.520Z,100872.69
2022-07-26T08:38:28.212Z,100882.72
2022-07-26T08:41:31.718Z,100887.16
2022-07-26T08:44:35.110Z,100878.31
2022-07-26T08:48:00.731Z,100888.66
2022-07-26T08:51:11.117Z,100890.69
2022-07-26T08:54:16.158Z,100903.22
2022-07-26T08:57:19.750Z,100906.28
2022-07-26T09:00:24.964Z,100908.28
2022-07-26T09:03:29.169Z,100920.53
2022-07-26T09:06:31.760Z,100924.78
2022-07-26T09:09:36.329Z,100931.19
2022-07-26T09:12:39.951Z,100932.63
2022-07-26T09:15:42.539Z,100932.78
2022-07-26T09:18:47.510Z,100937.53
2022-07-26T09:21:51.314Z,100924.94
2022-07-26T09:24:53.954Z,100936.66
2022-07-26T09:27:56.715Z,100936.81
2022-07-26T09:31:03.122Z,100959.34
2022-07-26T09:34:08.788Z,100969.13
2022-07-26T09:37:12.616Z,100980.09
2022-07-26T09:40:17.466Z,100992.03
2022-07-26T09:43:23.906Z,100987.28
2022-07-26T09:46:29.618Z,100998.28
2022-07-26T09:49:40.884Z,101002.84
2022-07-26T09:52:59.082Z,101001.72
2022-07-26T09:56:01.697Z,100993.44
2022-07-26T09:59:05.763Z,101003.19
2022-07-26T10:02:08.405Z,101011.53
2022-07-26T10:05:12.344Z,101019.03
2022-07-26T10:08:15.504Z,101010.06
2022-07-26T10:11:20.136Z,101019.91
2022-07-26T10:14:40.435Z,101015.50
2022-07-26T10:17:43.670Z,101028.59
2022-07-26T10:20:52.352Z,101018.84
2022-07-26T10:23:57.907Z,101014.50
2022-07-26T10:27:00.526Z,101030.03
2022-07-26T10:30:22.846Z,101025.78
2022-07-26T10:33:27.263Z,101015.72
2022-07-26T10:36:36.448Z,101019.06
2022-07-26T10:39:39.832Z,101019.25
2022-07-26T10:42:46.328Z,101009.31
2022-07-26T10:45:50.187Z,101026.31
2022-07-26T10:48:59.811Z,101023.41
2022-07-26T10:52:13.515Z,101023.16
2022-07-26T10:55:20.559Z,101030.13
2022-07-26T10:58:24.504Z,101041.47
2022-07-26T11:01:34.252Z,101036.19
2022-07-26T11:04:37.846Z,101046.50
2022-07-26T11:08:05.030Z,101041.75
2022-07-26T11:11:07.584Z,101055.69
2022-07-26T11:14:12.713Z,101052.84
2022-07-26T11:17:24.222Z,101066.31
2022-07-26T11:20:29.775Z,101060.03
2022-07-26T11:23:35.895Z,101067.31
2022-07-26T11:26:41.747Z,101063.78
2022-07-26T11:29:49.055Z,101062.47
2022-07-26T11:32:53.987Z,101068.59
2022-07-26T11:35:56.598Z,101069.47
2022-07-26T11:39:01.155Z,101064.94
2022-07-26T11:42:06.321Z,101082.97
2022-07-26T11:45:11.201Z,101086.34
2022-07-26T11:48:13.965Z,101095.28
2022-07-26T11:51:18.263Z,101090.25
2022-07-26T11:54:22.570Z,101088.19
2022-07-26T11:57:30.687Z,101090.19
2022-07-26T12:00:33.968Z,101084.41
2022-07-26T12:03:36.591Z,101097.97
2022-07-26T12:06:39.997Z,101086.06
2022-07-26T12:09:49.326Z,101082.22
2022-07-26T12:12:51.976Z,101089.66
2022-07-26T12:15:54.657Z,101096.31
2022-07-26T12:18:57.298Z,101096.66
2022-07-26T12:22:08.620Z,101100.84
2022-07-26T12:25:26.299Z,101099.97
2022-07-26T12:28:41.460Z,101102.81
2022-07-26T12:31:44.108Z,101092.47
2022-07-26T12:35:00.592Z,101115.78
2022-07-26T12:38:04.544Z,101106.78
2022-07-26T12:41:08.538Z,101109.00
2022-07-26T12:44:16.753Z,101109.34
2022-07-26T12:47:20.075Z,101119.63
2022-07-26T12:50:24.817Z,101117.34
2022-07-26T12:53:27.513Z,101114.41
2022-07-26T12:56:31.541Z,101113.94
2022-07-26T12:59:34.215Z,101131.34
2022-07-26T13:02:38.316Z,101130.00
2022-07-26T13:05:40.925Z,101136.69
2022-07-26T13:08:43.488Z,101149.97
2022-07-26T13:11:47.466Z,101136.41
2022-07-26T13:14:50.697Z,101133.50
2022-07-26T13:17:53.303Z,101139.88
2022-07-26T13:20:57.863Z,101143.81
2022-07-26T13:24:00.481Z,101145.91
2022-07-26T13:27:05.981Z,101147.91
2022-07-26T13:30:09.507Z,101150.59
2022-07-26T13:33:12.437Z,101155.34
2022-07-26T13:36:15.049Z,101147.03
2022-07-26T13:39:17.815Z,101163.03
2022-07-26T13:42:22.091Z,101156.03
2022-07-26T13:45:24.754Z,101168.69
2022-07-26T13:48:31.937Z,101168.66
2022-07-26T13:51:53.986Z,101169.34
2022-07-26T13:54:56.558Z,101175.03
2022-07-26T13:58:00.533Z,101168.38
2022-07-26T14:01:03.919Z,101177.44
2022-07-26T14:04:08.219Z,101180.41
2022-07-26T14:07:10.933Z,101186.34
2022-07-26T14:10:13.511Z,101191.88
2022-07-26T14:13:17.490Z,101189.38
2022-07-26T14:16:20.759Z,101191.34
2022-07-26T14:19:23.350Z,101203.63
2022-07-26T14:22:26.408Z,101194.09
2022-07-26T14:25:29.322Z,101196.88
2022-07-26T14:28:35.948Z,101203.53
2022-07-26T14:31:38.611Z,101192.88
2022-07-26T14:34:41.713Z,101206.00
2022-07-26T14:37:45.632Z,101198.38
2022-07-26T14:40:48.783Z,101209.28
2022-07-26T14:43:55.494Z,101205.44
2022-07-26T14:46:58.294Z,101208.19
2022-07-26T14:50:06.225Z,101195.41
2022-07-26T14:53:11.566Z,101207.88
2022-07-26T14:56:14.210Z,101205.06
2022-07-26T14:59:18.127Z,101220.66
2022-07-26T15:02:20.919Z,101218.59
2022-07-26T15:05:25.234Z,101219.31
2022-07-26T15:08:27.874Z,101221.53
2022-07-26T15:11:30.514Z,101218.22
2022-07-26T15:14:34.504Z,101217.75
2022-07-26T15:17:37.609Z,101224.00
2022-07-26T15:20:41.574Z,101229.41
2022-07-26T15:23:44.495Z,101218.84
2022-07-26T15:26:47.142Z,101216.50
2022-07-26T15:29:51.134Z,101231.16
2022-07-26T15:32:54.449Z,101227.19
2022-07-26T15:35:57.236Z,101225.44
2022-07-26T15:39:14.654Z,101232.25
2022-07-26T15:42:22.053Z,101230.81
2022-07-26T15:45:27.881Z,101214.84
2022-07-26T15:48:32.768Z,101219.00
2022-07-26T15:51:35.480Z,101217.91
2022-07-26T15:54:38.122Z,101212.50
2022-07-26T15:57:41.225Z,101223.66
2022-07-26T16:00:45.220Z,101221.19
2022-07-26T16:03:48.743Z,101221.94
2022-07-26T16:06:51.407Z,101221.94
2022-07-26T16:09:54.249Z,101221.59
2022-07-26T16:12:56.875Z,101224.22
2022-07-26T16:16:01.043Z,101228.44
2022-07-26T16:19:03.804Z,101235.56
2022-07-26T16:22:06.515Z,101230.69
2022-07-26T16:25:12.538Z,101222.84
2022-07-26T16:28:15.212Z,101226.72
2022-07-26T16:31:19.222Z,101235.81
2022-07-26T16:34:21.817Z,101224.41
2022-07-26T16:37:24.691Z,101223.19
2022-07-26T16:40:27.341Z,101230.94
2022-07-26T16:43:31.278Z,101236.75
2022-07-26T16:46:35.362Z,101230.41
2022-07-26T16:49:38.034Z,101246.38
2022-07-26T16:52:40.770Z,101235.31
2022-07-26T16:55:45.283Z,101233.69
2022-07-26T16:58:48.026Z,101232.38
2022-07-26T17:01:52.071Z,101252.16
2022-07-26T17:04:57.122Z,101246.31
2022-07-26T17:07:59.771Z,101251.69
2022-07-26T17:11:02.539Z,101250.22
2022-07-26T17:14:05.201Z,101263.97
2022-07-26T17:17:09.213Z,101263.44
2022-07-26T17:20:12.501Z,101257.44
2022-07-26T17:23:18.265Z,101259.25
2022-07-26T17:26:20.930Z,101257.00
2022-07-26T17:29:23.509Z,101255.25
2022-07-26T17:32:27.544Z,101270.97
2022-07-26T17:35:30.243Z,101269.06
2022-07-26T17:38:32.871Z,101271.53
2022-07-26T17:41:36.941Z,101267.97
2022-07-26T17:44:43.138Z,101269.25
2022-07-26T17:47:47.403Z,101273.22
2022-07-26T17:50:50.019Z,101272.56
2022-07-26T17:53:53.391Z,101271.41
2022-07-26T17:56:57.091Z,101259.03
2022-07-26T18:00:04.441Z,101261.38
2022-07-26T18:03:10.188Z,101252.69
2022-07-26T18:06:12.975Z,101249.78
2022-07-26T18:09:15.626Z,101255.56
2022-07-26T18:12:18.270Z,101255.25
2022-07-26T18:15:21.098Z,101243.88
2022-07-26T18:18:25.092Z,101246.44
2022-07-26T18:21:28.198Z,101250.09
2022-07-26T18:24:30.927Z,101247.31
2022-07-26T18:27:33.935Z,101262.13
2022-07-26T18:30:36.675Z,101259.97
2022-07-26T18:33:40.674Z,101263.44
2022-07-26T18:36:43.309Z,101266.88
2022-07-26T18:39:46.176Z,101261.22
2022-07-26T18:42:49.098Z,101269.72
2022-07-26T18:45:51.849Z,101270.13
2022-07-26T18:48:56.054Z,101270.97
2022-07-26T18:52:05.939Z,101275.13
2022-07-26T18:55:13.080Z,101271.59
2022-07-26T18:58:17.104Z,101273.38
2022-07-26T19:01:22.346Z,101280.59
2022-07-26T19:04:26.480Z,101281.31
2022-07-26T19:07:29.604Z,101275.63
2022-07-26T19:10:32.258Z,101289.94
2022-07-26T19:13:34.937Z,101284.09
2022-07-26T19:16:37.575Z,101283.69
2022-07-26T19:19:42.865Z,101278.63
2022-07-26T19:22:47.216Z,101285.41
2022-07-26T19:25:49.799Z,101291.34
2022-07-26T19:28:52.414Z,101291.94
2022-07-26T19:31:55.049Z,101297.31
2022-07-26T19:34:59.066Z,101290.22
2022-07-26T19:38:01.771Z,101302.47
2022-07-26T19:41:04.430Z,101306.59
2022-07-26T19:44:07.006Z,101304.28
2022-07-26T19:47:09.667Z,101306.38
2022-07-26T19:50:14.181Z,101310.41
2022-07-26T19:53:17.605Z,101313.69
2022-07-26T19:56:20.190Z,101313.75
2022-07-26T19:59:23.976Z,101304.25
2022-07-26T20:02:27.277Z,101312.09
2022-07-26T20:05:31.910Z,101298.31
2022-07-26T20:08:36.083Z,101301.59
2022-07-26T20:11:38.811Z,101311.75
2022-07-26T20:14:41.515Z,101303.69
2022-07-26T20:17:44.116Z,101303.97
2022-07-26T20:20:48.058Z,101317.72
2022-07-26T20:23:50.756Z,101303.72
2022-07-26T20:26:53.576Z,101300.47
2022-07-26T20:30:00.746Z,101314.88
2022-07-26T20:33:03.944Z,101316.31
2022-07-26T20:36:08.161Z,101310.22
2022-07-26T20:39:11.172Z,101310.19
2022-07-26T20:42:15.508Z,101311.06
2022-07-26T20:45:25.114Z,101311.75
2022-07-26T20:48:27.782Z,101316.69
2022-07-26T20:51:31.771Z,101318.19
2022-07-26T20:54:34.452Z,101322.47
2022-07-26T20:57:37.594Z,101323.91
2022-07-26T21:00:40.354Z,101320.75
2022-07-26T21:03:42.996Z,101325.94
2022-07-26T21:06:46.965Z,101327.47
2022-07-26T21:09:49.550Z,101327.16
2022-07-26T21:12:52.958Z,101325.53
2022-07-26T21:15:55.587Z,101325.09
2022-07-26T21:18:58.217Z,101329.53
2022-07-26T21:22:02.244Z,101333.59
2022-07-26T21:25:05.590Z,101330.88
2022-07-26T21:28:08.217Z,101327.22
2022-07-26T21:31:10.836Z,101333.97
2022-07-26T21:34:13.505Z,101336.63
2022-07-26T21:37:18.003Z,101335.88
2022-07-26T21:40:20.609Z,101346.84
2022-07-26T21:43:23.255Z,101339.56
2022-07-26T21:46:26.093Z,101341.97
2022-07-26T21:49:28.793Z,101345.31
2022-07-26T21:52:32.779Z,101345.78
2022-07-26T21:55:35.355Z,101345.53
2022-07-26T21:58:38.801Z,101345.41
2022-07-26T22:01:41.479Z,101348.84
2022-07-26T22:04:45.489Z,101343.47
2022-07-26T22:07:49.473Z,101348.94
2022-07-26T22:10:52.723Z,101346.34
2022-07-26T22:13:55.902Z,101338.88
2022-07-26T22:16:58.637Z,101348.75
2022-07-26T22:20:01.309Z,101344.72
2022-07-26T22:23:07.217Z,101343.22
2022-07-26T22:26:09.918Z,101345.19
2022-07-26T22:29:12.760Z,101347.53
2022-07-26T22:32:15.647Z,101349.44
2022-07-26T22:35:18.527Z,101354.31
2022-07-26T22:38:22.631Z,101349.34
2022-07-26T22:41:25.261Z,101349.16
2022-07-26T22:44:27.885Z,101356.78
2022-07-26T22:47:30.530Z,101355.31
2022-07-26T22:50:33.861Z,101357.63
2022-07-26T22:53:37.847Z,101353.13
2022-07-26T22:56:41.988Z,101345.56
2022-07-26T22:59:44.625Z,101342.50
2022-07-26T23:02:47.825Z,101350.72
2022-07-26T23:05:52.295Z,101346.78
2022-07-26T23:08:56.461Z,101343.78
2022-07-26T23:12:00.286Z,101342.88
2022-07-26T23:15:03.058Z,101339.38
2022-07-26T23:18:05.673Z,101341.06
2022-07-26T23:21:08.386Z,101343.50
2022-07-26T23:24:12.455Z,101344.88
2022-07-26T23:27:19.839Z,101352.75
2022-07-26T23:30:23.079Z,101340.97
2022-07-26T23:33:52.292Z,101342.16
2022-07-26T23:36:48.322Z,101342.25
2022-07-26T23:39:52.273Z,101343.19
2022-07-26T23:42:56.134Z,101336.78
2022-07-26T23:45:58.728Z,101335.16
2022-07-26T23:49:01.496Z,101333.69
2022-07-26T23:52:04.453Z,101329.53
2022-07-26T23:55:10.346Z,101333.31
2022-07-26T23:58:12.968Z,101332.66
